Time;durP1;ratioP1;P1;durP2;ratioP2;P2;SDS_P1;SDS_P2;PMS_P1;PMS_P2;Temp;Humidity;BMP_temperature;BMP_pressure;BME280_temperature;BME280_humidity;BME280_pressure;Samples;Min_cycle;Max_cycle;Signal;HPM_P1;HPM_P2
2023/07/03 00:02:42;;;;;;;;;;;;;;;;;;;;;
2023/07/03 00:05:44;;;;;;;13.20;9.10;;;;;;;17.06;52.80;99850.07;112601;1241;21956;-81
2023/07/03 00:08:36;;;;;;;16.00;10.70;;;;;;;17.00;53.08;99851.21;112445;1233;21947;-80
2023/07/03 00:11:33;;;;;;;16.80;9.80;;;;;;;16.95;53.31;99851.59;113516;1233;24123;-79
2023/07/03 00:14:48;;;;;;;;;;;;;;;16.89;53.54;99852.35;113374;1233;23028;-80
2023/07/03 00:19:00;;;;;;;;;;;;;;;;;;;;;
2023/07/03 00:22:10;;;;;;;17.50;10.40;;;;;;;16.71;54.22;99849.58;112141;1244;23108;-79
2023/07/03 00:25:08;;;;;;;18.30;12.20;;;;;;;16.68;54.21;99845.20;112189;1244;21987;-78
2023/07/03 00:28:21;;;;;;;21.10;14.20;;;;;;;16.69;54.27;99850.60;111669;1249;21959;-79
2023/07/03 00:31:32;;;;;;;20.60;12.60;;;;;;;16.65;54.48;99854.55;111284;1245;23742;-77
2023/07/03 00:37:52;;;;;;;;;;;;;;;;;;;;;
2023/07/03 00:41:44;;;;;;;22.20;13.40;;;;;;;16.50;54.81;99854.00;111343;1252;23594;-78
2023/07/03 00:45:58;;;;;;;14.30;11.40;;;;;;;16.46;55.13;99854.02;111131;1250;22002;-78
2023/07/03 00:49:10;;;;;;;;;;;;;;;;;;;;;
2023/07/03 00:52:06;;;;;;;16.80;12.70;;;;;;;16.41;55.47;99854.69;111346;1249;21971;-78
2023/07/03 00:55:11;;;;;;;19.10;12.10;;;;;;;16.39;55.51;99854.79;111093;1255;21966;-78
2023/07/03 01:01:48;;;;;;;18.40;10.60;;;;;;;16.32;56.08;99858.27;111191;1255;21977;-78
2023/07/03 01:05:14;;;;;;;16.80;10.80;;;;;;;16.28;56.30;99859.23;111197;1255;22969;-78
2023/07/03 01:08:10;;;;;;;18.00;11.80;;;;;;;16.25;56.28;99862.63;111206;1255;21968;-78
2023/07/03 01:11:13;;;;;;;;;;;;;;;;;;;;;
2023/07/03 01:14:09;;;;;;;17.00;11.50;;;;;;;16.16;56.26;99857.77;111849;1246;23619;-77
2023/07/03 01:17:13;;;;;;;;;;;;;;;;;;;;;
2023/07/03 01:20:19;;;;;;;15.60;10.70;;;;;;;16.12;56.56;99852.30;112112;1245;21942;-78
2023/07/03 01:23:58;;;;;;;;;;;;;;;;;;;;;
2023/07/03 01:26:59;;;;;;;15.30;11.20;;;;;;;16.02;57.13;99855.27;111797;1249;22935;-78
2023/07/03 01:30:24;;;;;;;15.40;10.60;;;;;;;16.04;56.94;99857.42;111548;1248;22492;-78
2023/07/03 01:33:25;;;;;;;16.50;11.20;;;;;;;16.03;57.14;99853.45;111489;1251;21960;-78
2023/07/03 01:36:29;;;;;;;21.00;10.80;;;;;;;16.03;57.26;99856.58;110845;1257;23707;-79
2023/07/03 01:39:29;;;;;;;19.30;12.40;;;;;;;16.02;57.32;99858.20;111060;1255;25447;-78
2023/07/03 01:42:38;;;;;;;18.20;11.10;;;;;;;16.03;57.22;99860.08;111767;1248;24338;-78
2023/07/03 01:45:54;;;;;;;13.10;10.90;;;;;;;16.06;57.22;99859.05;112125;1244;23108;-78
2023/07/03 01:49:41;;;;;;;13.20;10.40;;;;;;;16.07;57.48;99860.54;112247;1247;22755;-77
2023/07/03 01:57:42;;;;;;;15.60;11.90;;;;;;;16.15;57.62;99862.79;110797;1257;21965;-79
2023/07/03 02:00:10;;;;;;;15.00;10.20;;;;;;;16.19;57.62;99861.98;110324;1262;23620;-77
2023/07/03 02:03:11;;;;;;;;;;;;;;;;;;;;;
2023/07/03 02:06:35;;;;;;;20.70;11.30;;;;;;;16.22;57.28;99863.55;110499;1262;22282;-78
2023/07/03 02:09:52;;;;;;;16.60;10.80;;;;;;;16.20;57.28;99863.66;110009;1267;22187;-78
2023/07/03 02:12:41;;;;;;;18.70;12.10;;;;;;;16.14;57.18;99857.90;109842;1267;21973;-79
2023/07/03 02:15:16;;;;;;;14.50;10.30;;;;;;;16.19;57.06;99868.65;110194;1262;21986;-78
2023/07/03 02:18:03;;;;;;;14.30;10.40;;;;;;;16.20;56.99;99873.81;110289;1256;23594;-77
2023/07/03 02:21:30;;;;;;;15.00;10.60;;;;;;;16.14;57.27;99864.07;110923;1257;23090;-78
2023/07/03 02:24:22;;;;;;;16.80;13.10;;;;;;;16.23;57.05;99876.65;110938;1258;21963;-77
2023/07/03 02:27:40;;;;;;;15.60;10.80;;;;;;;16.27;56.80;99875.67;111543;1251;21970;-77
2023/07/03 02:30:49;;;;;;;16.30;10.30;;;;;;;16.31;56.47;99875.52;111450;1253;21974;-79
2023/07/03 02:33:58;;;;;;;18.40;11.20;;;;;;;16.35;56.06;99873.31;112258;1242;21973;-78
2023/07/03 02:37:42;;;;;;;;;;;;;;;;;;;;;
2023/07/03 02:41:21;;;;;;;;;;;;;;;;;;;;;
2023/07/03 02:44:08;;;;;;;15.50;9.30;;;;;;;16.54;54.90;99856.70;113018;1239;23677;-78
2023/07/03 02:47:34;;;;;;;15.80;9.20;;;;;;;16.64;54.38;99866.96;113013;1239;21966;-77
2023/07/03 02:50:58;;;;;;;15.00;9.50;;;;;;;16.66;54.16;99874.22;112979;1239;23311;-77
2023/07/03 02:53:56;;;;;;;13.60;9.30;;;;;;;16.67;53.73;99864.62;112808;1239;22175;-76
2023/07/03 02:57:03;;;;;;;;;;;;;;;;;;;;;
2023/07/03 02:59:54;;;;;;;11.00;8.60;;;;;;;16.76;53.30;99873.79;112887;1239;21979;-79
2023/07/03 03:03:20;;;;;;;14.70;9.90;;;;;;;16.76;53.01;99868.69;112974;1238;21950;-77
2023/07/03 03:06:43;;;;;;;;;;;;;;;;;;;;;
2023/07/03 03:10:09;;;;;;;17.40;10.30;;;;;;;16.82;52.61;99872.54;113022;1238;21949;-77
2023/07/03 03:14:21;;;;;;;;;;;;;;;;;;;;;
2023/07/03 03:17:58;;;;;;;12.80;9.70;;;;;;;16.86;52.45;99877.55;113083;1238;21914;-78
2023/07/03 03:20:54;;;;;;;14.50;9.50;;;;;;;16.89;52.28;99874.65;112405;1242;22261;-78
2023/07/03 03:23:40;;;;;;;16.60;10.10;;;;;;;16.91;52.22;99872.41;112471;1242;21953;-77
2023/07/03 03:26:43;;;;;;;16.30;10.20;;;;;;;16.94;52.20;99878.56;112424;1242;21976;-78
2023/07/03 03:29:25;;;;;;;14.30;10.70;;;;;;;16.97;52.13;99875.70;111779;1247;21984;-77
2023/07/03 03:32:20;;;;;;;14.10;10.10;;;;;;;16.97;51.96;99869.22;112087;1245;24287;-78
2023/07/03 03:35:32;;;;;;;12.90;10.00;;;;;;;16.96;52.03;99870.64;111284;1253;21962;-78
2023/07/03 03:38:07;;;;;;;20.20;10.20;;;;;;;17.00;52.24;99871.81;110981;1254;22861;-77
2023/07/03 03:41:05;;;;;;;13.30;9.90;;;;;;;17.02;52.24;99874.78;111329;1253;21977;-78
2023/07/03 03:43:50;;;;;;;16.00;10.10;;;;;;;16.96;52.17;99860.09;110950;1257;23718;-77
2023/07/03 03:46:25;;;;;;;12.90;9.50;;;;;;;17.10;52.20;99874.59;110900;1257;22000;-78
2023/07/03 03:48:57;;;;;;;15.40;10.70;;;;;;;17.14;52.10;99868.33;111467;1252;23034;-77
2023/07/03 03:51:41;;;;;;;16.70;10.80;;;;;;;17.20;52.20;99870.36;111209;1252;22456;-80
2023/07/03 03:54:19;;;;;;;16.30;11.60;;;;;;;17.25;52.21;99872.13;111708;1247;23651;-78
2023/07/03 03:57:09;;;;;;;18.40;9.30;;;;;;;17.29;52.26;99868.46;112523;1239;21954;-76
2023/07/03 04:00:00;;;;;;;14.00;10.30;;;;;;;17.30;52.08;99870.99;112075;1245;21975;-76
2023/07/03 04:02:56;;;;;;;;;;;;;;;;;;;;;
2023/07/03 04:05:52;;;;;;;;;;;;;;;;;;;;;
2023/07/03 04:09:05;;;;;;;17.70;9.90;;;;;;;17.48;51.92;99869.85;112686;1239;22040;-76
2023/07/03 04:11:45;;;;;;;;;;;;;;;17.49;51.80;99869.27;112646;1239;21937;-77
2023/07/03 04:14:49;;;;;;;;;;;;;;;;;;;;;
2023/07/03 04:17:51;;;;;;;17.50;9.90;;;;;;;17.52;51.83;99872.39;111603;1245;21919;-76
2023/07/03 04:20:45;;;;;;;18.30;9.60;;;;;;;17.63;51.66;99869.80;112219;1245;22028;-77
2023/07/03 04:23:25;;;;;;;17.20;11.50;;;;;;;17.75;51.41;99869.13;112012;1245;23857;-77
2023/07/03 04:26:03;;;;;;;15.00;9.90;;;;;;;17.87;51.04;99873.82;112003;1245;22435;-78
2023/07/03 04:28:52;;;;;;;13.20;9.80;;;;;;;17.97;50.48;99877.17;112117;1245;21960;-76
2023/07/03 04:32:02;;;;;;;16.90;9.50;;;;;;;18.04;50.19;99875.01;112040;1245;23481;-76
2023/07/03 04:35:37;;;;;;;16.50;10.10;;;;;;;18.12;50.23;99868.95;112619;1241;22993;-77
2023/07/03 04:38:24;;;;;;;;;;;;;;;;;;;;;
2023/07/03 04:41:10;;;;;;;;;;;;;;;;;;;;;
2023/07/03 04:43:57;;;;;;;18.00;10.00;;;;;;;18.56;49.24;99866.23;112226;1245;23591;-75
2023/07/03 04:46:38;;;;;;;16.50;9.90;;;;;;;18.70;49.15;99870.98;111638;1249;23608;-76
2023/07/03 04:49:45;;;;;;;14.30;10.40;;;;;;;18.84;48.98;99872.14;111750;1244;21975;-77
2023/07/03 04:52:52;;;;;;;;;;;;;;;;;;;;;
2023/07/03 04:55:40;;;;;;;17.70;9.50;;;;;;;19.24;48.33;99872.67;111687;1250;23697;-77
2023/07/03 04:58:30;;;;;;;14.20;9.00;;;;;;;19.50;47.92;99876.48;111760;1250;21975;-78
2023/07/03 05:01:31;;;;;;;16.00;9.10;;;;;;;19.84;47.61;99875.13;111671;1243;22730;-78
2023/07/03 05:04:33;;;;;;;11.70;8.80;;;;;;;20.30;46.98;99879.00;112117;1244;21961;-76
2023/07/03 05:08:09;;;;;;;;;;;;;;;;;;;;;
2023/07/03 05:11:32;;;;;;;;;;;;;;;;;;;;;
2023/07/03 05:15:03;;;;;;;17.20;9.20;;;;;;;21.46;44.38;99879.27;112751;1240;22669;-77
2023/07/03 05:17:56;;;;;;;16.80;10.10;;;;;;;21.83;43.38;99878.70;112426;1241;23462;-77
2023/07/03 05:20:47;;;;;;;12.20;8.70;;;;;;;22.16;43.08;99879.40;112094;1245;21958;-78
2023/07/03 05:24:13;;;;;;;18.90;9.30;;;;;;;22.56;42.53;99882.36;112140;1245;22799;-77
2023/07/03 05:27:34;;;;;;;15.10;9.00;;;;;;;22.89;41.18;99880.94;110093;1245;2645937;-78
2023/07/03 05:30:39;;;;;;;19.90;9.50;;;;;;;23.03;40.53;99882.88;112252;1245;23034;-79
2023/07/03 05:33:27;;;;;;;16.60;9.00;;;;;;;23.18;40.07;99878.88;111932;1245;21952;-78
2023/07/03 05:36:46;;;;;;;;;;;;;;;;;;;;;
2023/07/03 05:40:09;;;;;;;17.10;9.00;;;;;;;23.48;39.99;99873.80;112898;1238;21961;-77
2023/07/03 05:43:16;;;;;;;14.50;8.50;;;;;;;23.98;39.34;99879.81;112174;1244;21963;-77
2023/07/03 05:45:55;;;;;;;14.50;9.00;;;;;;;24.30;38.42;99874.38;112093;1244;21951;-79
2023/07/03 05:49:02;;;;;;;13.40;8.60;;;;;;;24.42;37.70;99875.66;111825;1248;21986;-78
2023/07/03 05:51:51;;;;;;;14.00;8.70;;;;;;;24.64;37.21;99873.89;112145;1241;21996;-77
2023/07/03 05:54:51;;;;;;;12.10;8.40;;;;;;;24.76;36.61;99873.41;112205;1243;21956;-78
2023/07/03 05:58:05;;;;;;;15.20;7.70;;;;;;;24.93;36.64;99875.70;112093;1244;24286;-78
2023/07/03 06:00:54;;;;;;;14.10;9.00;;;;;;;25.31;36.35;99874.20;112373;1240;23606;-77
2023/07/03 06:04:30;;;;;;;15.00;8.40;;;;;;;25.55;34.97;99877.33;112880;1239;22312;-78
2023/07/03 06:07:32;;;;;;;13.30;8.50;;;;;;;25.47;34.75;99876.86;113235;1233;22395;-77
2023/07/03 06:10:19;;;;;;;12.50;8.20;;;;;;;25.48;34.92;99876.70;113252;1233;21996;-78
2023/07/03 06:13:18;;;;;;;13.80;8.40;;;;;;;25.29;34.40;99869.11;113021;1238;22960;-80
2023/07/03 06:16:14;;;;;;;9.50;7.10;;;;;;;25.10;34.48;99868.42;112316;1243;21971;-77
2023/07/03 06:19:28;;;;;;;11.30;8.20;;;;;;;25.08;34.85;99870.56;112372;1243;23714;-79
2023/07/03 06:22:20;;;;;;;12.90;7.80;;;;;;;25.11;34.62;99862.93;112132;1243;24282;-78
2023/07/03 06:25:20;;;;;;;;;;;;;;;;;;;;;
2023/07/03 06:28:02;;;;;;;18.80;10.90;;;;;;;24.94;34.56;99870.80;111644;1248;21970;-78
2023/07/03 06:30:44;;;;;;;12.80;7.70;;;;;;;24.93;34.39;99870.94;111794;1246;21964;-77
2023/07/03 06:33:27;;;;;;;12.20;8.20;;;;;;;24.81;34.36;99865.19;112122;1241;23054;-77
2023/07/03 06:36:29;;;;;;;15.30;8.70;;;;;;;24.60;34.09;99865.16;112665;1240;21978;-78
2023/07/03 06:39:31;;;;;;;11.60;8.20;;;;;;;24.40;34.43;99861.86;112320;1244;22014;-78
2023/07/03 06:42:24;;;;;;;10.40;8.00;;;;;;;24.42;34.49;99862.14;112028;1242;23610;-78
2023/07/03 06:45:24;;;;;;;10.20;7.60;;;;;;;24.41;33.99;99859.92;112575;1242;23714;-78
2023/07/03 06:48:23;;;;;;;12.90;8.30;;;;;;;24.28;34.04;99858.43;112225;1242;23578;-78
2023/07/03 06:51:24;;;;;;;13.60;7.90;;;;;;;24.29;34.04;99858.73;112006;1247;22065;-77
2023/07/03 06:54:35;;;;;;;17.00;8.40;;;;;;;24.59;34.33;99855.79;111937;1247;23670;-78
2023/07/03 06:57:37;;;;;;;13.80;8.50;;;;;;;24.94;33.56;99853.95;112353;1243;22989;-81
2023/07/03 07:01:06;;;;;;;;;;;;;;;;;;;;;
2023/07/03 07:04:19;;;;;;;17.80;9.70;;;;;;;25.11;32.84;99844.36;112870;1240;23012;-77
2023/07/03 07:07:35;;;;;;;;;;;;;;;;;;;;;
2023/07/03 07:10:29;;;;;;;9.30;7.30;;;;;;;25.06;33.01;99841.89;113231;1233;24088;-77
2023/07/03 07:13:20;;;;;;;11.20;8.10;;;;;;;25.17;32.78;99846.84;113646;1227;23019;-82
2023/07/03 07:16:40;;;;;;;14.60;8.30;;;;;;;25.33;32.73;99844.96;113436;1233;21901;-80
2023/07/03 07:19:43;;;;;;;18.70;7.90;;;;;;;25.55;32.60;99846.36;113470;1233;22438;-79
2023/07/03 07:22:45;;;;;;;11.70;7.40;;;;;;;25.62;32.17;99845.90;113440;1233;22324;-77
2023/07/03 07:25:35;;;;;;;;;;;;;;;;;;;;;
2023/07/03 07:29:38;;;;;;;12.10;8.00;;;;;;;25.51;32.13;99834.95;113471;1233;21958;-77
2023/07/03 07:33:20;;;;;;;12.00;8.20;;;;;;;25.49;32.08;99834.28;112669;1241;22093;-75
2023/07/03 07:36:44;;;;;;;12.10;8.00;;;;;;;25.56;32.03;99832.50;112711;1241;23400;-79
2023/07/03 07:39:55;;;;;;;;;;;;;;;;;;;;;
2023/07/03 07:43:48;;;;;;;13.70;8.20;;;;;;;25.70;32.09;99835.77;110621;1260;23701;-77
2023/07/03 07:46:49;;;;;;;;;;;;;;;;;;;;;
2023/07/03 07:50:37;;;;;;;13.70;8.50;;;;;;;25.84;32.10;99833.85;110657;1259;23561;-75
2023/07/03 07:54:04;;;;;;;11.40;8.00;;;;;;;26.08;31.82;99833.22;110667;1260;22849;-77
2023/07/03 07:57:34;;;;;;;10.40;7.60;;;;;;;26.14;31.18;99826.16;110870;1255;24503;-76
2023/07/03 08:00:25;;;;;;;13.80;8.40;;;;;;;26.37;31.20;99826.95;111334;1247;23641;-76
2023/07/03 08:03:04;;;;;;;13.60;8.60;;;;;;;26.51;30.63;99837.70;112077;1241;21962;-78
2023/07/03 08:05:38;;;;;;;10.70;8.00;;;;;;;26.58;30.33;99832.30;112267;1244;21958;-77
2023/07/03 08:08:15;;;;;;;14.80;9.10;;;;;;;26.58;29.90;99835.67;112328;1244;22081;-76
2023/07/03 08:11:06;;;;;;;12.20;9.00;;;;;;;26.61;29.69;99826.34;112699;1238;21963;-76
2023/07/03 08:13:45;;;;;;;11.90;9.00;;;;;;;26.88;29.70;99837.02;113137;1238;23674;-75
2023/07/03 08:16:24;;;;;;;11.60;7.90;;;;;;;27.27;29.38;99836.83;112334;1243;22700;-76
2023/07/03 08:19:24;;;;;;;17.30;8.40;;;;;;;27.50;28.38;99828.85;112257;1243;24510;-77
2023/07/03 08:22:13;;;;;;;;;;;;;;;27.70;28.02;99838.83;111195;1254;23692;-75
2023/07/03 08:24:52;;;;;;;15.80;8.30;;;;;;;27.48;27.72;99835.70;111506;1251;22106;-76
2023/07/03 08:27:27;;;;;;;10.50;7.60;;;;;;;27.38;28.23;99832.56;111339;1251;21966;-76
2023/07/03 08:30:18;;;;;;;12.30;8.50;;;;;;;27.31;28.22;99833.59;111365;1251;21965;-75
2023/07/03 08:34:00;;;;;;;;;;;;;;;;;;;;;
2023/07/03 08:38:02;;;;;;;14.10;8.40;;;;;;;27.22;28.24;99814.80;110937;1255;21981;-77
2023/07/03 08:41:23;;;;;;;15.30;8.10;;;;;;;27.71;27.91;99820.89;110982;1256;23710;-76
2023/07/03 08:44:16;;;;;;;12.10;8.20;;;;;;;28.18;27.50;99812.55;111110;1256;23185;-76
2023/07/03 08:46:47;;;;;;;15.60;8.40;;;;;;;28.63;27.06;99804.83;111083;1256;21959;-76
2023/07/03 08:49:34;;;;;;;10.70;7.40;;;;;;;29.05;26.29;99803.22;111116;1256;23721;-77
2023/07/03 08:52:08;;;;;;;18.00;8.90;;;;;;;29.28;25.31;99801.73;110809;1256;22001;-78
2023/07/03 08:54:40;;;;;;;13.10;8.20;;;;;;;29.44;25.63;99807.18;111285;1249;21943;-74
2023/07/03 08:57:16;;;;;;;9.70;8.10;;;;;;;29.82;25.72;99802.36;111442;1247;22844;-78
2023/07/03 08:59:46;;;;;;;12.20;8.20;;;;;;;30.11;24.84;99804.45;112782;1233;22308;-77
2023/07/03 09:03:04;;;;;;;18.80;9.00;;;;;;;30.04;24.34;99809.91;113265;1233;21932;-77
2023/07/03 09:06:25;;;;;;;13.70;8.30;;;;;;;29.64;24.66;99808.59;113438;1233;23701;-76
2023/07/03 09:09:29;;;;;;;13.70;8.50;;;;;;;29.35;25.33;99804.48;112372;1241;22013;-75
2023/07/03 09:12:19;;;;;;;16.80;9.40;;;;;;;29.15;25.31;99808.56;112293;1241;23095;-77
2023/07/03 09:15:28;;;;;;;12.50;8.50;;;;;;;28.69;25.67;99812.29;112744;1241;21932;-79
2023/07/03 09:18:13;;;;;;;12.60;10.00;;;;;;;28.39;26.34;99812.34;112450;1241;23700;-78
2023/07/03 09:20:48;;;;;;;15.50;9.50;;;;;;;28.21;26.75;99808.57;112341;1240;22825;-77
2023/07/03 09:23:27;;;;;;;14.40;9.50;;;;;;;28.23;27.06;99809.02;112413;1241;23613;-79
2023/07/03 09:26:14;;;;;;;13.80;8.60;;;;;;;28.30;27.21;99805.39;112209;1245;23721;-78
2023/07/03 09:29:05;;;;;;;11.70;10.20;;;;;;;28.59;27.52;99805.27;112325;1245;21957;-76
2023/07/03 09:31:48;;;;;;;11.70;8.90;;;;;;;28.81;27.25;99810.43;111980;1245;22251;-75
2023/07/03 09:34:25;;;;;;;14.70;9.50;;;;;;;28.67;27.17;99808.14;112183;1245;21951;-78
2023/07/03 09:37:19;;;;;;;;;;;;;;;;;;;;;
2023/07/03 09:40:32;;;;;;;26.10;10.60;;;;;;;28.09;27.21;99815.00;112110;1245;22477;-76
2023/07/03 09:43:13;;;;;;;15.00;10.00;;;;;;;27.58;28.06;99817.02;112743;1238;21951;-77
2023/07/03 09:46:51;;;;;;;12.90;9.80;;;;;;;27.54;29.09;99811.75;112673;1238;23697;-77
2023/07/03 09:50:39;;;;;;;15.00;9.70;;;;;;;27.57;29.07;99802.65;113338;1233;21951;-78
2023/07/03 09:53:43;;;;;;;13.70;10.10;;;;;;;27.77;28.91;99804.16;112888;1242;21967;-78
2023/07/03 09:56:30;;;;;;;19.70;10.50;;;;;;;27.81;28.98;99793.70;112071;1248;21971;-76
2023/07/03 09:59:31;;;;;;;14.00;10.70;;;;;;;27.72;29.01;99791.55;111796;1249;21981;-76
2023/07/03 10:02:03;;;;;;;18.50;10.40;;;;;;;27.49;29.13;99783.52;111644;1249;22571;-77
2023/07/03 10:04:53;;;;;;;17.80;10.10;;;;;;;27.51;29.66;99796.91;111722;1249;21958;-76
2023/07/03 10:07:45;;;;;;;14.60;9.80;;;;;;;27.67;29.31;99790.95;111608;1249;22734;-76
2023/07/03 10:10:34;;;;;;;16.60;9.90;;;;;;;27.72;29.69;99791.92;111042;1255;22018;-76
2023/07/03 10:13:42;;;;;;;14.80;10.50;;;;;;;27.79;29.40;99787.56;111030;1256;21977;-76
2023/07/03 10:16:36;;;;;;;15.60;10.30;;;;;;;27.81;28.72;99785.36;111462;1250;22206;-78
2023/07/03 10:19:11;;;;;;;19.00;10.70;;;;;;;27.73;28.68;99785.20;111445;1250;21989;-78
2023/07/03 10:22:08;;;;;;;18.20;10.60;;;;;;;27.69;28.88;99781.32;111587;1250;21989;-78
2023/07/03 10:24:40;;;;;;;16.20;10.40;;;;;;;27.62;28.66;99784.11;111847;1245;22550;-77
2023/07/03 10:27:33;;;;;;;20.70;11.70;;;;;;;27.54;28.83;99792.77;112305;1245;23667;-76
2023/07/03 10:30:15;;;;;;;16.30;11.00;;;;;;;27.44;29.14;99789.50;112815;1238;21958;-77
2023/07/03 10:32:53;;;;;;;18.40;11.00;;;;;;;27.54;29.62;99783.72;112784;1230;22586;-75
2023/07/03 10:35:33;;;;;;;16.40;11.00;;;;;;;27.69;29.79;99772.65;113208;1234;22260;-75
2023/07/03 10:38:30;;;;;;;17.10;10.80;;;;;;;27.88;29.13;99771.92;113395;1233;21976;-76
2023/07/03 10:41:20;;;;;;;17.20;10.10;;;;;;;27.93;28.89;99774.77;113509;1233;21973;-78
2023/07/03 10:44:13;;;;;;;17.20;11.60;;;;;;;27.93;28.45;99769.60;113078;1233;23033;-78
2023/07/03 10:47:02;;;;;;;18.10;10.40;;;;;;;27.99;28.83;99773.11;113516;1231;22556;-76
2023/07/03 10:49:37;;;;;;;20.40;11.00;;;;;;;28.14;28.46;99781.07;113615;1233;22030;-78
2023/07/03 10:52:36;;;;;;;15.10;10.30;;;;;;;28.15;28.02;99769.81;112776;1239;21945;-76
2023/07/03 10:55:38;;;;;;;13.60;9.90;;;;;;;28.03;27.98;99773.25;112337;1244;22869;-77
2023/07/03 10:58:20;;;;;;;15.90;10.30;;;;;;;27.86;28.00;99776.71;112285;1244;22168;-76
2023/07/03 11:01:17;;;;;;;16.50;10.20;;;;;;;27.71;28.10;99779.16;112321;1244;21960;-77
2023/07/03 11:04:31;;;;;;;15.90;10.60;;;;;;;27.47;28.48;99784.52;111772;1248;22351;-77
2023/07/03 11:07:23;;;;;;;16.80;11.00;;;;;;;27.34;28.78;99791.61;112094;1249;21968;-79
2023/07/03 11:10:34;;;;;;;20.60;9.80;;;;;;;27.26;29.22;99793.90;112044;1245;23613;-79
2023/07/03 11:13:51;;;;;;;;;;;;;;;;;;;;;
2023/07/03 11:17:08;;;;;;;15.20;10.10;;;;;;;26.90;29.95;99791.17;111919;1248;22442;-77
2023/07/03 11:19:44;;;;;;;18.10;11.30;;;;;;;27.02;30.06;99792.71;111186;1252;23649;-77
2023/07/03 11:22:37;;;;;;;18.80;10.00;;;;;;;27.16;30.24;99790.97;111560;1248;23011;-78
2023/07/03 11:25:34;;;;;;;14.50;10.20;;;;;;;27.25;29.98;99797.63;111626;1248;22432;-78
2023/07/03 11:28:41;;;;;;;13.20;9.60;;;;;;;27.24;29.74;99787.91;111582;1248;22393;-78
2023/07/03 11:31:31;;;;;;;15.10;10.30;;;;;;;27.19;30.04;99789.50;111704;1248;22060;-78
2023/07/03 11:34:09;;;;;;;16.10;10.20;;;;;;;27.06;29.81;99782.34;111628;1249;21987;-79
2023/07/03 11:37:39;;;;;;;15.70;10.90;;;;;;;26.95;30.21;99783.96;111826;1241;22848;-78
2023/07/03 11:40:58;;;;;;;11.90;9.90;;;;;;;26.93;30.55;99778.30;112789;1241;21964;-80
2023/07/03 11:43:49;;;;;;;11.70;10.30;;;;;;;27.03;30.88;99779.30;112626;1241;23606;-77
2023/07/03 11:46:29;;;;;;;13.10;10.20;;;;;;;27.19;30.99;99780.64;111939;1246;23774;-77
2023/07/03 11:49:14;;;;;;;16.50;11.30;;;;;;;27.29;30.58;99781.46;111456;1245;21961;-79
2023/07/03 11:52:00;;;;;;;13.80;10.30;;;;;;;27.25;30.09;99771.45;111976;1244;23038;-77
2023/07/03 11:54:36;;;;;;;14.10;11.50;;;;;;;27.16;30.02;99772.06;111586;1249;21967;-77
2023/07/03 11:57:39;;;;;;;16.30;12.60;;;;;;;27.24;30.31;99775.64;111555;1248;23053;-78
2023/07/03 12:00:38;;;;;;;19.70;11.80;;;;;;;27.27;29.98;99766.46;111317;1252;22865;-77
2023/07/03 12:04:34;;;;;;;18.30;10.40;;;;;;;27.18;30.05;99764.88;111386;1252;21991;-77
2023/07/03 12:07:24;;;;;;;25.80;11.70;;;;;;;27.06;29.82;99766.45;111333;1250;21960;-76
2023/07/03 12:10:18;;;;;;;17.30;11.80;;;;;;;27.04;29.79;99774.10;111601;1249;22422;-77
2023/07/03 12:13:57;;;;;;;18.70;10.50;;;;;;;26.98;29.59;99765.87;111217;1250;21989;-77
2023/07/03 12:16:49;;;;;;;18.10;11.80;;;;;;;26.97;29.33;99767.34;111638;1250;23062;-79
2023/07/03 12:20:21;;;;;;;17.50;11.60;;;;;;;27.04;29.10;99772.15;111830;1247;21967;-77
2023/07/03 12:23:03;;;;;;;;;;;;;;;27.04;28.90;99769.16;111321;1252;21954;-76
2023/07/03 12:25:34;;;;;;;18.70;10.90;;;;;;;26.87;28.91;99765.45;111330;1252;21992;-77
2023/07/03 12:28:14;;;;;;;17.40;11.10;;;;;;;26.83;29.10;99761.10;111344;1252;23833;-77
2023/07/03 12:31:07;;;;;;;16.90;10.70;;;;;;;26.88;29.28;99765.68;111478;1248;22836;-77
2023/07/03 12:33:49;;;;;;;15.00;10.20;;;;;;;26.98;29.00;99768.08;111610;1248;23800;-77
2023/07/03 12:36:54;;;;;;;20.10;11.30;;;;;;;27.13;28.73;99771.02;111892;1249;21975;-77
2023/07/03 12:40:00;;;;;;;19.80;10.90;;;;;;;27.13;27.97;99772.46;111826;1248;21970;-76
2023/07/03 12:43:03;;;;;;;15.20;10.50;;;;;;;27.11;28.01;99765.71;112508;1239;22035;-75
2023/07/03 12:45:41;;;;;;;19.60;11.60;;;;;;;27.13;28.13;99771.65;112570;1239;21910;-75
2023/07/03 12:49:29;;;;;;;;;;;;;;;;;;;;;
2023/07/03 12:52:36;;;;;;;16.00;10.80;;;;;;;27.08;28.17;99774.04;112516;1243;21962;-78
2023/07/03 12:55:06;;;;;;;18.40;11.60;;;;;;;27.10;28.54;99775.75;111778;1249;21984;-77
2023/07/03 12:58:04;;;;;;;17.90;10.40;;;;;;;27.17;28.88;99777.19;111874;1248;22737;-79
2023/07/03 13:01:11;;;;;;;19.90;10.50;;;;;;;27.18;29.10;99780.25;111086;1251;23805;-78
2023/07/03 13:04:00;;;;;;;23.70;11.40;;;;;;;27.16;29.43;99784.02;111340;1251;21980;-78
2023/07/03 13:06:44;;;;;;;25.60;11.40;;;;;;;27.09;29.77;99783.52;111930;1246;22772;-79
2023/07/03 13:09:28;;;;;;;23.90;11.60;;;;;;;26.95;29.87;99770.71;111288;1252;23744;-78
2023/07/03 13:13:04;;;;;;;18.30;11.30;;;;;;;26.75;29.94;99775.31;111310;1252;21987;-76
2023/07/03 13:15:45;;;;;;;23.90;10.80;;;;;;;26.60;30.10;99787.48;111894;1246;21976;-78
2023/07/03 13:18:28;;;;;;;14.00;10.20;;;;;;;26.55;30.04;99784.42;112201;1240;21991;-78
2023/07/03 13:21:23;;;;;;;16.40;9.90;;;;;;;26.51;29.76;99777.59;112720;1241;22256;-77
2023/07/03 13:25:10;;;;;;;18.70;10.90;;;;;;;26.51;29.91;99778.85;112864;1239;21956;-80
2023/07/03 13:28:44;;;;;;;14.80;9.70;;;;;;;26.52;29.50;99777.65;112537;1239;21958;-78
2023/07/03 13:31:36;;;;;;;20.10;10.40;;;;;;;26.39;29.30;99772.52;112777;1239;23576;-78
2023/07/03 13:35:06;;;;;;;;;;;;;;;;;;;;;
2023/07/03 13:38:32;;;;;;;15.10;8.70;;;;;;;26.56;29.57;99785.20;113004;1239;23024;-78
2023/07/03 13:41:30;;;;;;;14.00;7.90;;;;;;;26.69;29.04;99784.50;112784;1238;22162;-77
2023/07/03 13:44:30;;;;;;;14.30;8.40;;;;;;;26.74;28.64;99783.00;112714;1240;21920;-77
2023/07/03 13:47:24;;;;;;;22.00;8.20;;;;;;;26.77;28.30;99781.23;112362;1240;21949;-77
2023/07/03 13:50:53;;;;;;;15.40;8.30;;;;;;;26.75;27.97;99785.54;112876;1239;23678;-79
2023/07/03 13:53:50;;;;;;;14.70;7.60;;;;;;;26.78;27.52;99790.24;112380;1238;22025;-78
2023/07/03 13:56:52;;;;;;;16.30;7.70;;;;;;;26.75;26.98;99783.80;112579;1241;21953;-82
2023/07/03 13:59:59;;;;;;;13.20;7.20;;;;;;;26.76;26.89;99780.65;112916;1241;21957;-80
2023/07/03 14:02:40;;;;;;;11.80;6.50;;;;;;;26.75;26.82;99784.80;111760;1250;22638;-76
2023/07/03 14:05:57;;;;;;;17.40;6.80;;;;;;;26.73;26.88;99785.23;112140;1245;23787;-77
2023/07/03 14:09:11;;;;;;;14.70;7.40;;;;;;;26.77;27.01;99787.49;112354;1245;22966;-76
2023/07/03 14:12:20;;;;;;;25.40;7.10;;;;;;;26.74;26.94;99791.02;112138;1245;22016;-77
2023/07/03 14:14:55;;;;;;;15.70;6.90;;;;;;;26.70;26.76;99793.09;111996;1242;21952;-76
2023/07/03 14:17:39;;;;;;;12.90;6.80;;;;;;;26.69;26.59;99795.31;112470;1242;23703;-77
2023/07/03 14:20:42;;;;;;;13.50;6.20;;;;;;;26.65;26.30;99795.94;112342;1241;22831;-79
2023/07/03 14:23:24;;;;;;;20.00;7.50;;;;;;;26.56;26.22;99794.42;112692;1242;21971;-79
2023/07/03 14:26:28;;;;;;;;;;;;;;;;;;;;;
2023/07/03 14:29:20;;;;;;;19.60;10.80;;;;;;;26.41;26.97;99795.33;112212;1247;21975;-77
2023/07/03 14:31:54;;;;;;;18.60;6.70;;;;;;;26.37;27.20;99794.84;111530;1252;23591;-77
2023/07/03 14:34:33;;;;;;;12.40;5.90;;;;;;;26.39;26.73;99801.02;111451;1252;23606;-78
2023/07/03 14:37:04;;;;;;;14.20;6.30;;;;;;;26.37;26.11;99797.67;111626;1251;21980;-77
2023/07/03 14:39:50;;;;;;;11.60;5.40;;;;;;;26.34;26.03;99811.98;111974;1243;21918;-78
2023/07/03 14:42:23;;;;;;;14.40;6.10;;;;;;;26.26;26.13;99809.67;111636;1249;23024;-77
2023/07/03 14:44:53;;;;;;;11.00;6.10;;;;;;;26.21;26.45;99810.02;112202;1244;21961;-75
2023/07/03 14:47:21;;;;;;;10.80;6.30;;;;;;;26.17;26.61;99810.52;112235;1244;22412;-74
2023/07/03 14:49:50;;;;;;;13.20;5.90;;;;;;;26.08;26.70;99808.45;112442;1239;21943;-73
2023/07/03 14:52:19;;;;;;;10.70;5.90;;;;;;;26.05;26.95;99812.55;112306;1239;23087;-73
2023/07/03 14:54:52;;;;;;;11.10;5.90;;;;;;;26.05;27.03;99813.41;112660;1230;21972;-75